N818TW KISM-KLAL
Flight info
| Callsign | N818TW |
|---|---|
| Flight time | 0h 25m |
| Altitude | 2500 |
| Route | VFR |
| Aircraft | PA24/L-VGD/C |
Departure
| Time | 2026-04-21 23:44 |
|---|---|
| Airport | Kissimmee Gateway Airport (KISM) |
Arrival
| Time | 2026-04-22 00:09 |
|---|---|
| Airport | Lakeland Linder International Airport (KLAL) |
| Time | Latitude | Longitude | Altitude | Speed | Heading |
|---|---|---|---|---|---|
| 2026-04-21 23:35 | 28.29428 | -81.43445 | 87 ft | 0 kts | 89° |
| 2026-04-21 23:37 | 28.29425 | -81.43423 | 89 ft | 4 kts | 146° |
| 2026-04-21 23:38 | 28.29412 | -81.43420 | 87 ft | 0 kts | 170° |
| 2026-04-21 23:38 | 28.29394 | -81.43410 | 89 ft | 6 kts | 151° |
| 2026-04-21 23:38 | 28.29351 | -81.43435 | 89 ft | 8 kts | 242° |
| 2026-04-21 23:38 | 28.29305 | -81.43517 | 89 ft | 12 kts | 239° |
| 2026-04-21 23:39 | 28.29264 | -81.43593 | 90 ft | 11 kts | 235° |
| 2026-04-21 23:39 | 28.29223 | -81.43666 | 90 ft | 10 kts | 238° |
| 2026-04-21 23:39 | 28.29193 | -81.43730 | 91 ft | 8 kts | 280° |
| 2026-04-21 23:39 | 28.29239 | -81.43770 | 90 ft | 9 kts | 328° |
| 2026-04-21 23:40 | 28.29305 | -81.43816 | 87 ft | 12 kts | 327° |
| 2026-04-21 23:40 | 28.29381 | -81.43870 | 86 ft | 13 kts | 328° |
| 2026-04-21 23:40 | 28.29452 | -81.43921 | 86 ft | 12 kts | 328° |
| 2026-04-21 23:40 | 28.29514 | -81.43965 | 86 ft | 10 kts | 328° |
| 2026-04-21 23:41 | 28.29580 | -81.43995 | 86 ft | 10 kts | 17° |
| 2026-04-21 23:41 | 28.29634 | -81.43997 | 85 ft | 7 kts | 285° |
| 2026-04-21 23:41 | 28.29633 | -81.44006 | 85 ft | 0 kts | 265° |
| 2026-04-21 23:42 | 28.29633 | -81.44009 | 85 ft | 0 kts | 263° |
| 2026-04-21 23:42 | 28.29640 | -81.44054 | 85 ft | 11 kts | 320° |
| 2026-04-21 23:42 | 28.29642 | -81.44124 | 88 ft | 10 kts | 236° |
| 2026-04-21 23:42 | 28.29616 | -81.44151 | 88 ft | 2 kts | 187° |
| 2026-04-21 23:43 | 28.29567 | -81.44126 | 87 ft | 11 kts | 148° |
| 2026-04-21 23:43 | 28.29325 | -81.43963 | 91 ft | 73 kts | 147° |
| 2026-04-21 23:43 | 28.28849 | -81.43623 | 295 ft | 85 kts | 140° |
| 2026-04-21 23:43 | 28.28330 | -81.43284 | 632 ft | 88 kts | 151° |
| 2026-04-21 23:44 | 28.27750 | -81.43027 | 977 ft | 88 kts | 151° |
| 2026-04-21 23:44 | 28.27232 | -81.42648 | 1275 ft | 91 kts | 133° |
| 2026-04-21 23:44 | 28.26758 | -81.42155 | 1491 ft | 103 kts | 127° |
| 2026-04-21 23:44 | 28.26259 | -81.41580 | 1776 ft | 106 kts | 127° |
| 2026-04-21 23:45 | 28.25851 | -81.41065 | 2331 ft | 68 kts | 115° |
| 2026-04-21 23:45 | 28.25621 | -81.39755 | 2608 ft | 88 kts | 63° |
| 2026-04-21 23:45 | 28.26140 | -81.39315 | 2719 ft | 103 kts | 20° |
| 2026-04-21 23:46 | 28.26864 | -81.39516 | 2890 ft | 120 kts | 332° |
| 2026-04-21 23:46 | 28.27291 | -81.40373 | 3020 ft | 134 kts | 281° |
| 2026-04-21 23:46 | 28.27100 | -81.41411 | 3171 ft | 140 kts | 242° |
| 2026-04-21 23:46 | 28.26706 | -81.42472 | 3234 ft | 149 kts | 246° |
| 2026-04-21 23:47 | 28.26302 | -81.43589 | 3202 ft | 160 kts | 244° |
| 2026-04-21 23:47 | 28.25869 | -81.44802 | 3078 ft | 171 kts | 245° |
| 2026-04-21 23:47 | 28.25253 | -81.45924 | 3038 ft | 173 kts | 232° |
| 2026-04-21 23:47 | 28.24589 | -81.47018 | 3181 ft | 161 kts | 230° |
| 2026-04-21 23:48 | 28.24025 | -81.48023 | 3471 ft | 148 kts | 235° |
| 2026-04-21 23:48 | 28.23483 | -81.48979 | 3747 ft | 140 kts | 231° |
| 2026-04-21 23:48 | 28.22890 | -81.49937 | 3819 ft | 152 kts | 230° |
| 2026-04-21 23:48 | 28.22341 | -81.50900 | 4164 ft | 149 kts | 233° |
| 2026-04-21 23:49 | 28.21790 | -81.51975 | 4206 ft | 160 kts | 237° |
| 2026-04-21 23:49 | 28.21271 | -81.53087 | 4403 ft | 159 kts | 240° |
| 2026-04-21 23:49 | 28.20785 | -81.54218 | 4562 ft | 160 kts | 242° |
| 2026-04-21 23:49 | 28.20334 | -81.55378 | 4728 ft | 161 kts | 246° |
| 2026-04-21 23:50 | 28.20062 | -81.56174 | 4849 ft | 161 kts | 248° |
| 2026-04-21 23:50 | 28.19693 | -81.57382 | 4985 ft | 162 kts | 250° |
| 2026-04-21 23:50 | 28.19365 | -81.58602 | 5135 ft | 162 kts | 252° |
| 2026-04-21 23:50 | 28.19035 | -81.59850 | 5152 ft | 169 kts | 253° |
| 2026-04-21 23:51 | 28.18739 | -81.61066 | 5211 ft | 170 kts | 256° |
| 2026-04-21 23:51 | 28.18516 | -81.62362 | 4917 ft | 154 kts | 259° |
| 2026-04-21 23:51 | 28.18450 | -81.63571 | 3991 ft | 155 kts | 275° |
| 2026-04-21 23:51 | 28.18533 | -81.64765 | 3201 ft | 148 kts | 274° |
| 2026-04-21 23:52 | 28.18575 | -81.65921 | 2447 ft | 145 kts | 273° |
| 2026-04-21 23:52 | 28.18639 | -81.67013 | 1937 ft | 133 kts | 275° |
| 2026-04-21 23:52 | 28.18710 | -81.68032 | 1457 ft | 127 kts | 276° |
| 2026-04-21 23:52 | 28.18781 | -81.68973 | 1152 ft | 113 kts | 279° |
| 2026-04-21 23:53 | 28.18866 | -81.69856 | 1181 ft | 115 kts | 276° |
| 2026-04-21 23:53 | 28.18949 | -81.70819 | 1115 ft | 132 kts | 276° |
| 2026-04-21 23:53 | 28.19030 | -81.71776 | 1203 ft | 111 kts | 278° |
| 2026-04-21 23:53 | 28.19082 | -81.72597 | 1249 ft | 105 kts | 276° |
| 2026-04-21 23:54 | 28.19102 | -81.73452 | 1290 ft | 113 kts | 269° |
| 2026-04-21 23:54 | 28.19098 | -81.74374 | 1228 ft | 120 kts | 268° |
| 2026-04-21 23:54 | 28.19070 | -81.75337 | 1049 ft | 126 kts | 269° |
| 2026-04-21 23:54 | 28.19070 | -81.76356 | 900 ft | 132 kts | 268° |
| 2026-04-21 23:55 | 28.19085 | -81.77278 | 943 ft | 102 kts | 271° |
| 2026-04-21 23:55 | 28.19073 | -81.78137 | 1062 ft | 113 kts | 266° |
| 2026-04-21 23:55 | 28.19006 | -81.79034 | 1109 ft | 115 kts | 258° |
| 2026-04-21 23:55 | 28.18678 | -81.79883 | 1106 ft | 117 kts | 230° |
| 2026-04-21 23:56 | 28.18145 | -81.80545 | 1083 ft | 109 kts | 221° |
| 2026-04-21 23:56 | 28.17681 | -81.81140 | 1239 ft | 90 kts | 211° |
| 2026-04-21 23:56 | 28.17071 | -81.81226 | 1161 ft | 96 kts | 149° |
| 2026-04-21 23:56 | 28.16538 | -81.80929 | 1068 ft | 73 kts | 139° |
| 2026-04-21 23:57 | 28.16053 | -81.80675 | 1101 ft | 81 kts | 153° |
| 2026-04-21 23:57 | 28.15539 | -81.80887 | 1109 ft | 88 kts | 229° |
| 2026-04-21 23:57 | 28.15593 | -81.81535 | 1199 ft | 85 kts | 314° |
| 2026-04-21 23:57 | 28.15524 | -81.82153 | 1178 ft | 98 kts | 218° |
| 2026-04-21 23:58 | 28.14905 | -81.82495 | 1196 ft | 106 kts | 188° |
| 2026-04-21 23:58 | 28.14182 | -81.82663 | 1255 ft | 105 kts | 176° |
| 2026-04-21 23:58 | 28.13458 | -81.82771 | 1144 ft | 100 kts | 182° |
| 2026-04-21 23:58 | 28.12865 | -81.83117 | 1117 ft | 94 kts | 206° |
| 2026-04-21 23:59 | 28.12357 | -81.83587 | 1153 ft | 100 kts | 218° |
| 2026-04-21 23:59 | 28.12027 | -81.84311 | 1185 ft | 108 kts | 251° |
| 2026-04-21 23:59 | 28.11821 | -81.85147 | 1176 ft | 113 kts | 252° |
| 2026-04-21 23:59 | 28.11581 | -81.85993 | 1221 ft | 108 kts | 243° |
| 2026-04-22 00:00 | 28.11242 | -81.86725 | 1195 ft | 106 kts | 226° |
| 2026-04-22 00:00 | 28.10750 | -81.87341 | 1175 ft | 103 kts | 219° |
| 2026-04-22 00:00 | 28.10249 | -81.87956 | 1131 ft | 110 kts | 222° |
| 2026-04-22 00:00 | 28.09873 | -81.88711 | 1180 ft | 107 kts | 238° |
| 2026-04-22 00:01 | 28.09565 | -81.89467 | 1198 ft | 104 kts | 235° |
| 2026-04-22 00:01 | 28.09192 | -81.90152 | 1139 ft | 105 kts | 228° |
| 2026-04-22 00:01 | 28.08783 | -81.90822 | 1146 ft | 102 kts | 227° |
| 2026-04-22 00:01 | 28.08360 | -81.91461 | 1160 ft | 104 kts | 226° |
| 2026-04-22 00:02 | 28.07923 | -81.92119 | 1144 ft | 104 kts | 226° |
| 2026-04-22 00:02 | 28.07528 | -81.92767 | 1190 ft | 98 kts | 226° |
| 2026-04-22 00:02 | 28.07104 | -81.93346 | 1203 ft | 96 kts | 219° |
| 2026-04-22 00:02 | 28.06681 | -81.93955 | 1145 ft | 95 kts | 239° |
| 2026-04-22 00:03 | 28.06543 | -81.94649 | 1175 ft | 93 kts | 259° |
| 2026-04-22 00:03 | 28.06515 | -81.95499 | 1174 ft | 120 kts | 271° |
| 2026-04-22 00:03 | 28.06594 | -81.96368 | 1134 ft | 104 kts | 272° |
| 2026-04-22 00:03 | 28.06648 | -81.97140 | 1170 ft | 102 kts | 265° |
| 2026-04-22 00:04 | 28.06580 | -81.97949 | 1227 ft | 104 kts | 257° |
| 2026-04-22 00:04 | 28.06413 | -81.98756 | 1193 ft | 107 kts | 255° |
| 2026-04-22 00:04 | 28.06221 | -81.99599 | 1146 ft | 111 kts | 253° |
| 2026-04-22 00:04 | 28.05911 | -82.00398 | 1129 ft | 112 kts | 235° |
| 2026-04-22 00:05 | 28.05511 | -82.01147 | 1178 ft | 110 kts | 230° |
| 2026-04-22 00:05 | 28.05041 | -82.01850 | 1198 ft | 113 kts | 213° |
| 2026-04-22 00:05 | 28.04367 | -82.02212 | 1230 ft | 104 kts | 184° |
| 2026-04-22 00:05 | 28.03665 | -82.02336 | 1216 ft | 99 kts | 172° |
| 2026-04-22 00:06 | 28.03004 | -82.02363 | 1194 ft | 95 kts | 166° |
| 2026-04-22 00:06 | 28.02352 | -82.02317 | 1171 ft | 92 kts | 163° |
| 2026-04-22 00:06 | 28.01703 | -82.02327 | 1105 ft | 99 kts | 168° |
| 2026-04-22 00:06 | 28.01013 | -82.02540 | 1067 ft | 115 kts | 207° |
| 2026-04-22 00:07 | 28.00568 | -82.03270 | 944 ft | 106 kts | 242° |
| 2026-04-22 00:07 | 28.00157 | -82.03987 | 818 ft | 114 kts | 208° |
| 2026-04-22 00:07 | 27.99455 | -82.04119 | 573 ft | 91 kts | 163° |
| 2026-04-22 00:07 | 27.99056 | -82.03756 | 439 ft | 73 kts | 92° |
| 2026-04-22 00:08 | 27.99044 | -82.03230 | 332 ft | 61 kts | 93° |
| 2026-04-22 00:08 | 27.99036 | -82.02736 | 287 ft | 71 kts | 93° |
| 2026-04-22 00:08 | 27.99038 | -82.02160 | 221 ft | 74 kts | 91° |
| 2026-04-22 00:08 | 27.99037 | -82.01673 | 143 ft | 50 kts | 94° |
| 2026-04-22 00:09 | 27.99040 | -82.01310 | 140 ft | 42 kts | 91° |
| 2026-04-22 00:09 | 27.99039 | -82.01025 | 141 ft | 27 kts | 91° |
| 2026-04-22 00:09 | 27.99028 | -82.00830 | 145 ft | 21 kts | 103° |
| 2026-04-22 00:09 | 27.98915 | -82.00759 | 142 ft | 25 kts | 179° |
| 2026-04-22 00:10 | 27.98756 | -82.00750 | 139 ft | 21 kts | 180° |
| 2026-04-22 00:10 | 27.98725 | -82.00857 | 138 ft | 22 kts | 273° |
| 2026-04-22 00:10 | 27.98730 | -82.01010 | 140 ft | 16 kts | 271° |
| 2026-04-22 00:10 | 27.98727 | -82.01114 | 140 ft | 11 kts | 265° |
| 2026-04-22 00:11 | 27.98724 | -82.01203 | 139 ft | 12 kts | 272° |
| 2026-04-22 00:11 | 27.98723 | -82.01279 | 139 ft | 8 kts | 264° |
| 2026-04-22 00:11 | 27.98719 | -82.01328 | 139 ft | 5 kts | 269° |
| 2026-04-22 00:11 | 27.98726 | -82.01425 | 141 ft | 18 kts | 272° |
| 2026-04-22 00:12 | 27.98676 | -82.01507 | 144 ft | 15 kts | 179° |
| 2026-04-22 00:12 | 27.98586 | -82.01495 | 142 ft | 11 kts | 169° |
| 2026-04-22 00:12 | 27.98481 | -82.01454 | 141 ft | 12 kts | 129° |
| 2026-04-22 00:12 | 27.98483 | -82.01423 | 141 ft | 0 kts | 359° |
| 2026-04-22 00:13 | 27.98484 | -82.01423 | 141 ft | 0 kts | 359° |
| 2026-04-22 00:14 | 27.98485 | -82.01423 | 141 ft | 0 kts | 359° |
| 2026-04-22 00:15 | 27.98486 | -82.01423 | 141 ft | 0 kts | 359° |
| 2026-04-22 00:15 | 27.98544 | -82.01428 | 142 ft | 21 kts | 353° |
| 2026-04-22 00:15 | 27.98657 | -82.01435 | 142 ft | 13 kts | 2° |
| 2026-04-22 00:16 | 27.98731 | -82.01476 | 143 ft | 12 kts | 271° |
| 2026-04-22 00:16 | 27.98729 | -82.01593 | 145 ft | 23 kts | 268° |
| 2026-04-22 00:16 | 27.98730 | -82.01779 | 142 ft | 24 kts | 270° |
| 2026-04-22 00:16 | 27.98729 | -82.01964 | 141 ft | 23 kts | 269° |
| 2026-04-22 00:17 | 27.98727 | -82.02144 | 139 ft | 23 kts | 269° |
| 2026-04-22 00:17 | 27.98743 | -82.02296 | 134 ft | 7 kts | 340° |
| 2026-04-22 00:17 | 27.98814 | -82.02347 | 135 ft | 18 kts | 267° |
| 2026-04-22 00:17 | 27.98816 | -82.02548 | 134 ft | 20 kts | 274° |
| 2026-04-22 00:18 | 27.98816 | -82.02702 | 133 ft | 20 kts | 268° |
| 2026-04-22 00:18 | 27.98814 | -82.02858 | 132 ft | 20 kts | 268° |
| 2026-04-22 00:18 | 27.98816 | -82.03002 | 134 ft | 17 kts | 272° |
| 2026-04-22 00:18 | 27.98814 | -82.03131 | 135 ft | 16 kts | 269° |
| 2026-04-22 00:19 | 27.98813 | -82.03256 | 135 ft | 16 kts | 269° |
| 2026-04-22 00:19 | 27.98855 | -82.03332 | 135 ft | 0 kts | 11° |